Time;durP1;ratioP1;P1;durP2;ratioP2;P2;SDS_P1;SDS_P2;PMS_P1;PMS_P2;Temp;Humidity;BMP_temperature;BMP_pressure;BME280_temperature;BME280_humidity;BME280_pressure;Samples;Min_cycle;Max_cycle;Signal;HPM_P1;HPM_P2
2023/12/01 00:00:43;;;;;;;17.87;13.80;;;;;;;3.89;100.00;94097.59;5051548;28;20221;-89
2023/12/01 00:03:11;;;;;;;15.77;14.17;;;;;;;3.88;100.00;94106.19;5046404;28;20205;-86
2023/12/01 00:05:38;;;;;;;17.10;13.60;;;;;;;3.83;100.00;94111.03;5053222;28;20205;-89
2023/12/01 00:08:04;;;;;;;14.70;13.10;;;;;;;3.80;100.00;94130.75;5063804;28;20200;-89
2023/12/01 00:10:31;;;;;;;14.93;12.83;;;;;;;3.86;100.00;94128.47;5055139;28;20296;-89
2023/12/01 00:12:57;;;;;;;15.90;12.83;;;;;;;3.90;100.00;94127.16;5036623;28;20221;-87
2023/12/01 00:15:24;;;;;;;15.70;12.90;;;;;;;3.93;100.00;94109.81;5035655;28;20210;-88
2023/12/01 00:17:50;;;;;;;15.63;12.17;;;;;;;3.96;100.00;94114.56;5040869;28;20806;-87
2023/12/01 00:20:18;;;;;;;13.30;11.83;;;;;;;3.98;100.00;94112.63;5035821;28;20619;-88
2023/12/01 00:22:45;;;;;;;13.87;12.03;;;;;;;4.00;100.00;94120.09;5047154;28;20669;-86
2023/12/01 00:25:11;;;;;;;14.07;11.67;;;;;;;4.00;100.00;94118.34;5055863;28;20202;-87
2023/12/01 00:27:38;;;;;;;13.80;12.03;;;;;;;4.00;100.00;94118.34;5055500;28;20204;-88
2023/12/01 00:30:06;;;;;;;14.17;11.67;;;;;;;4.04;100.00;94108.63;5055127;28;20221;-87
2023/12/01 00:32:32;;;;;;;14.27;12.00;;;;;;;4.04;100.00;94111.16;5055496;28;20201;-88
2023/12/01 00:34:59;;;;;;;14.20;12.00;;;;;;;4.03;100.00;94099.41;5044652;28;20232;-88
2023/12/01 00:37:26;;;;;;;14.13;11.40;;;;;;;4.03;100.00;94105.28;5054842;28;20208;-89
2023/12/01 00:39:53;;;;;;;14.60;12.07;;;;;;;4.01;100.00;94101.31;5055070;28;20602;-87
2023/12/01 00:42:19;;;;;;;13.87;11.60;;;;;;;4.02;100.00;94096.06;5055248;28;20206;-89
2023/12/01 00:44:46;;;;;;;13.87;11.40;;;;;;;4.04;100.00;94095.88;5055202;28;20220;-87
2023/12/01 00:47:13;;;;;;;15.20;11.93;;;;;;;4.03;100.00;94092.56;5054270;28;20296;-87
2023/12/01 00:49:39;;;;;;;13.30;11.47;;;;;;;4.03;100.00;94090.00;5052999;28;20255;-87
2023/12/01 00:52:06;;;;;;;14.13;12.33;;;;;;;4.02;100.00;94088.41;5053675;28;20219;-87
2023/12/01 00:54:34;;;;;;;14.47;11.93;;;;;;;4.02;100.00;94092.72;5065623;28;20228;-88
2023/12/01 00:57:00;;;;;;;13.20;11.80;;;;;;;4.05;100.00;94094.91;5074704;28;20208;-88
2023/12/01 00:59:27;;;;;;;13.83;11.63;;;;;;;4.06;100.00;94089.63;5073245;28;20457;-88
2023/12/01 01:01:53;;;;;;;14.20;11.80;;;;;;;4.05;100.00;94079.63;5073729;28;20744;-87
2023/12/01 01:04:20;;;;;;;13.63;12.20;;;;;;;4.05;100.00;94082.94;5072027;28;20201;-87
2023/12/01 01:06:46;;;;;;;13.63;11.83;;;;;;;4.08;100.00;94076.72;5047731;28;20201;-88
2023/12/01 01:09:15;;;;;;;13.43;11.20;;;;;;;4.07;100.00;94086.13;5069081;28;20205;-87
2023/12/01 01:11:43;;;;;;;13.00;11.53;;;;;;;4.08;100.00;94074.97;5061643;28;20225;-88
2023/12/01 01:14:10;;;;;;;15.23;11.80;;;;;;;4.08;100.00;94072.44;5051509;28;20221;-86
2023/12/01 01:16:37;;;;;;;12.90;11.07;;;;;;;4.08;100.00;94059.69;5052355;28;20213;-87
2023/12/01 01:19:04;;;;;;;12.80;11.50;;;;;;;4.08;100.00;94074.97;5050886;28;20205;-88
2023/12/01 01:21:32;;;;;;;15.47;11.97;;;;;;;4.09;100.00;94075.75;5048645;28;20222;-88
2023/12/01 01:23:59;;;;;;;12.70;11.20;;;;;;;4.08;100.00;94067.34;5047233;28;20205;-88
2023/12/01 01:26:25;;;;;;;13.97;11.23;;;;;;;4.10;100.00;94074.81;5052080;28;20204;-87
2023/12/01 01:29:07;;;;;;;13.63;11.53;;;;;;;4.10;100.00;94077.34;5051956;28;20216;-88
2023/12/01 01:31:38;;;;;;;12.17;10.87;;;;;;;4.11;100.00;94082.28;5052126;28;20225;-88
2023/12/01 01:34:10;;;;;;;12.00;10.53;;;;;;;4.11;100.00;94081.47;5051766;28;20272;-88
2023/12/01 01:36:37;;;;;;;12.00;10.70;;;;;;;4.11;100.00;94097.56;5051792;28;20269;-88
2023/12/01 01:39:04;;;;;;;13.00;11.23;;;;;;;4.11;100.00;94087.38;5046812;28;20708;-88
2023/12/01 01:41:30;;;;;;;12.57;11.27;;;;;;;4.13;100.00;94085.44;5051840;28;20366;-88
2023/12/01 01:43:58;;;;;;;15.50;12.50;;;;;;;4.09;100.00;94094.38;5051376;28;20197;-88
2023/12/01 01:46:25;;;;;;;15.93;12.33;;;;;;;4.06;100.00;94097.28;5050876;28;20189;-89
2023/12/01 01:48:51;;;;;;;12.97;11.53;;;;;;;4.07;100.00;94087.88;5051434;28;20212;-87
2023/12/01 01:51:19;;;;;;;13.53;11.40;;;;;;;4.08;100.00;94092.00;5051393;28;20236;-88
2023/12/01 01:53:45;;;;;;;13.03;11.37;;;;;;;4.09;100.00;94080.84;5051609;28;20233;-89
2023/12/01 01:56:13;;;;;;;12.27;10.60;;;;;;;4.12;100.00;94081.31;5051142;28;20213;-87
2023/12/01 01:58:40;;;;;;;13.73;11.37;;;;;;;4.13;100.00;94082.09;5051144;28;20201;-88
2023/12/01 02:01:11;;;;;;;13.57;11.00;;;;;;;4.13;100.00;94077.78;5046239;28;20218;-88
2023/12/01 02:03:38;;;;;;;13.27;11.77;;;;;;;4.12;100.00;94072.88;5031548;28;20209;-87
2023/12/01 02:06:07;;;;;;;12.53;11.23;;;;;;;4.11;100.00;94076.38;5031584;28;20557;-87
2023/12/01 02:08:34;;;;;;;12.20;10.90;;;;;;;4.11;100.00;94082.28;5054492;28;20250;-88
2023/12/01 02:11:01;;;;;;;12.17;10.80;;;;;;;4.14;100.00;94078.59;5049014;28;20249;-87
2023/12/01 02:13:28;;;;;;;13.13;11.10;;;;;;;4.15;100.00;94075.09;5045623;28;20208;-88
2023/12/01 02:15:54;;;;;;;12.60;11.30;;;;;;;4.16;100.00;94062.19;5051244;28;20251;-89
2023/12/01 02:18:24;;;;;;;12.13;10.53;;;;;;;4.18;100.00;94074.72;5050954;28;20201;-87
2023/12/01 02:20:51;;;;;;;11.40;10.20;;;;;;;4.18;100.00;94069.63;5052443;28;20228;-87
2023/12/01 02:23:19;;;;;;;12.43;10.73;;;;;;;4.22;100.00;94072.63;5050898;28;20212;-88
2023/12/01 02:25:46;;;;;;;11.83;10.03;;;;;;;4.21;100.00;94078.69;5049508;28;20201;-88
2023/12/01 02:28:13;;;;;;;12.63;11.33;;;;;;;4.19;100.00;94073.78;5050006;28;20231;-88
2023/12/01 02:30:40;;;;;;;12.80;10.63;;;;;;;4.20;100.00;94077.91;5051309;28;20221;-88
2023/12/01 02:33:07;;;;;;;11.30;10.10;;;;;;;4.22;100.00;94093.81;5050820;28;20202;-88
2023/12/01 02:35:33;;;;;;;13.43;10.70;;;;;;;4.21;100.00;94094.75;5051202;28;20226;-87
2023/12/01 02:38:00;;;;;;;13.07;10.93;;;;;;;4.24;100.00;94096.16;5051642;28;20237;-87
2023/12/01 02:40:28;;;;;;;11.63;10.30;;;;;;;4.23;100.00;94103.03;5051035;28;20222;-87
2023/12/01 02:42:54;;;;;;;11.37;10.17;;;;;;;4.23;100.00;94099.69;5047964;28;20202;-87
2023/12/01 02:45:22;;;;;;;13.60;11.10;;;;;;;4.24;100.00;94112.22;5050720;28;20400;-89
2023/12/01 02:47:49;;;;;;;12.03;10.43;;;;;;;4.22;100.00;94106.53;5050451;28;20228;-88
2023/12/01 02:50:17;;;;;;;12.17;10.87;;;;;;;4.21;100.00;94111.81;5050827;28;20240;-87
2023/12/01 02:52:45;;;;;;;12.73;10.73;;;;;;;4.19;100.00;94109.44;5050962;28;20233;-88
2023/12/01 02:55:12;;;;;;;15.77;10.83;;;;;;;4.20;100.00;94105.91;5032952;28;20221;-87
2023/12/01 02:57:40;;;;;;;13.70;11.33;;;;;;;4.15;100.00;94103.88;5030529;28;20202;-88
2023/12/01 03:00:13;;;;;;;14.47;12.23;;;;;;;4.15;100.00;94113.28;5046774;28;20268;-88
2023/12/01 03:02:40;;;;;;;14.50;12.70;;;;;;;4.11;100.00;94117.91;5050336;28;20205;-88
2023/12/01 03:05:07;;;;;;;16.07;12.23;;;;;;;4.12;100.00;94111.88;5050611;28;20201;-88
2023/12/01 03:07:34;;;;;;;12.93;11.57;;;;;;;4.11;100.00;94114.59;5050663;28;20192;-88
2023/12/01 03:10:00;;;;;;;13.03;11.47;;;;;;;4.11;100.00;94112.81;5070417;28;20603;-87
2023/12/01 03:12:26;;;;;;;13.23;11.83;;;;;;;4.10;100.00;94102.81;5070093;28;20208;-87
2023/12/01 03:14:54;;;;;;;14.77;12.30;;;;;;;4.08;100.00;94095.34;5057742;28;20236;-89
2023/12/01 03:17:23;;;;;;;12.33;11.03;;;;;;;4.07;100.00;94090.44;5048488;28;20201;-88
2023/12/01 03:19:50;;;;;;;14.97;12.43;;;;;;;4.07;100.00;94096.31;5050249;28;20201;-88
2023/12/01 03:22:16;;;;;;;13.00;11.43;;;;;;;4.08;100.00;94095.34;5049696;28;20204;-87
2023/12/01 03:24:44;;;;;;;14.37;12.30;;;;;;;4.08;100.00;94094.56;5050055;28;20201;-89
2023/12/01 03:27:13;;;;;;;12.70;11.13;;;;;;;4.07;100.00;94085.31;5049949;28;20198;-87
2023/12/01 03:29:40;;;;;;;14.73;12.70;;;;;;;4.00;100.00;94097.97;5049765;28;20197;-86
2023/12/01 03:32:08;;;;;;;15.23;13.47;;;;;;;4.02;100.00;94108.78;5047160;28;20197;-88
2023/12/01 03:34:34;;;;;;;14.27;12.53;;;;;;;4.01;100.00;94107.19;5049853;28;20225;-88
2023/12/01 03:37:02;;;;;;;13.93;12.43;;;;;;;3.99;100.00;94116.78;5049714;28;20201;-89
2023/12/01 03:39:28;;;;;;;13.17;11.77;;;;;;;4.00;100.00;94118.34;5049916;28;20193;-88
2023/12/01 03:41:55;;;;;;;14.00;12.50;;;;;;;4.03;100.00;94115.47;5052769;28;20236;-88
2023/12/01 03:44:21;;;;;;;14.43;12.37;;;;;;;4.05;100.00;94105.88;5053838;28;20219;-87
2023/12/01 03:46:48;;;;;;;14.30;12.17;;;;;;;4.04;100.00;94101.75;5051672;28;20224;-88
2023/12/01 03:49:16;;;;;;;15.00;12.37;;;;;;;4.05;100.00;94100.00;5047602;28;20201;-87
2023/12/01 03:51:42;;;;;;;13.63;11.97;;;;;;;4.07;100.00;94098.84;5033598;28;20238;-88
2023/12/01 03:54:09;;;;;;;12.77;11.40;;;;;;;4.08;100.00;94102.97;5051451;28;20307;-88
2023/12/01 03:56:36;;;;;;;12.67;11.37;;;;;;;4.07;100.00;94103.94;5074039;28;20204;-88
2023/12/01 03:59:09;;;;;;;11.83;10.63;;;;;;;4.08;100.00;94099.66;5073540;28;20645;-88
2023/12/01 04:01:36;;;;;;;15.57;12.77;;;;;;;4.04;100.00;94100.97;5073727;28;20233;-88
2023/12/01 04:04:04;;;;;;;13.40;11.50;;;;;;;4.02;100.00;94097.81;5057887;28;20212;-87
2023/12/01 04:06:33;;;;;;;13.50;11.13;;;;;;;3.94;100.00;94108.84;5052785;28;20276;-86
2023/12/01 04:09:05;;;;;;;14.47;11.63;;;;;;;3.94;100.00;94108.84;5066035;28;20201;-88
2023/12/01 04:11:31;;;;;;;12.70;11.23;;;;;;;3.98;100.00;94111.84;5073479;28;20299;-87
2023/12/01 04:13:58;;;;;;;14.53;11.87;;;;;;;4.01;100.00;94114.84;5073045;28;20205;-87
2023/12/01 04:16:24;;;;;;;13.57;11.80;;;;;;;3.98;100.00;94129.66;5072982;28;20205;-88
2023/12/01 04:18:51;;;;;;;12.30;10.97;;;;;;;4.01;100.00;94124.22;5068633;28;20675;-88
2023/12/01 04:21:18;;;;;;;16.10;11.17;;;;;;;3.97;100.00;94121.25;5050412;28;20229;-88
2023/12/01 04:23:46;;;;;;;13.83;12.10;;;;;;;3.98;100.00;94122.03;5052842;28;20202;-88
2023/12/01 04:26:12;;;;;;;12.67;11.03;;;;;;;3.98;100.00;94125.38;5053269;28;20201;-87
2023/12/01 04:28:39;;;;;;;14.00;11.80;;;;;;;4.01;100.00;94126.78;5053284;28;20201;-87
2023/12/01 04:31:05;;;;;;;15.43;12.40;;;;;;;4.03;100.00;94128.19;5052729;28;20225;-87
2023/12/01 04:33:32;;;;;;;13.23;11.60;;;;;;;4.04;100.00;94129.00;5052909;28;20201;-89
2023/12/01 04:35:59;;;;;;;13.47;11.93;;;;;;;4.06;100.00;94129.59;5044129;28;20222;-86
2023/12/01 04:38:25;;;;;;;14.43;12.47;;;;;;;4.06;100.00;94114.31;5052550;28;20692;-88
2023/12/01 04:40:54;;;;;;;13.97;11.60;;;;;;;4.05;100.00;94110.97;5052822;28;20257;-88
2023/12/01 04:43:21;;;;;;;14.43;12.30;;;;;;;3.99;100.00;94087.97;5052116;28;20256;-88
2023/12/01 04:45:47;;;;;;;13.80;11.63;;;;;;;3.98;100.00;94097.34;5051652;28;20202;-88
2023/12/01 04:48:14;;;;;;;13.50;12.10;;;;;;;3.94;100.00;94098.66;5052142;28;20205;-87
2023/12/01 04:50:47;;;;;;;13.70;12.20;;;;;;;3.96;100.00;94098.50;5051825;28;20222;-87
2023/12/01 04:53:14;;;;;;;14.40;12.03;;;;;;;3.98;100.00;94102.44;5050802;28;20249;-88
2023/12/01 04:55:40;;;;;;;13.00;11.50;;;;;;;4.00;100.00;94092.09;5072306;28;20213;-87
2023/12/01 04:58:08;;;;;;;14.87;11.40;;;;;;;3.91;100.00;94083.72;5073423;28;20284;-88
2023/12/01 05:00:34;;;;;;;12.07;10.80;;;;;;;3.94;100.00;94102.97;5072021;28;20216;-88
2023/12/01 05:03:05;;;;;;;13.83;11.47;;;;;;;3.93;100.00;94104.72;5071518;28;20196;-88
2023/12/01 05:05:33;;;;;;;14.53;11.50;;;;;;;3.84;100.00;94102.44;5072059;28;20288;-87
2023/12/01 05:08:01;;;;;;;13.17;10.73;;;;;;;3.85;100.00;94116.75;5061377;28;20202;-87
2023/12/01 05:10:29;;;;;;;13.10;10.57;;;;;;;3.82;100.00;94107.69;5052343;28;20225;-87
2023/12/01 05:12:57;;;;;;;13.40;11.17;;;;;;;3.84;100.00;94115.94;5053290;28;20194;-88
2023/12/01 05:15:26;;;;;;;12.00;10.80;;;;;;;3.86;100.00;94131.03;5053799;28;20233;-88
2023/12/01 05:17:54;;;;;;;12.20;10.80;;;;;;;3.84;100.00;94131.22;5053948;28;20204;-87
2023/12/01 05:20:23;;;;;;;13.60;11.20;;;;;;;3.75;100.00;94127.94;5053068;28;20605;-87
2023/12/01 05:22:53;;;;;;;12.57;10.83;;;;;;;3.75;100.00;94135.56;5052350;28;20198;-86
2023/12/01 05:25:21;;;;;;;12.97;10.43;;;;;;;3.78;100.00;94134.44;5049903;28;20804;-88
2023/12/01 05:27:49;;;;;;;12.10;10.20;;;;;;;3.80;100.00;94135.06;5051457;28;20220;-88
2023/12/01 05:30:17;;;;;;;11.17;9.87;;;;;;;3.84;100.00;94138.06;5051157;28;20232;-88
2023/12/01 05:32:47;;;;;;;11.03;9.77;;;;;;;3.88;100.00;94145.16;5050588;28;20205;-87
2023/12/01 05:35:15;;;;;;;12.00;10.70;;;;;;;3.87;100.00;94127.50;5050637;28;20229;-88
2023/12/01 05:37:47;;;;;;;12.47;10.63;;;;;;;3.83;100.00;94126.28;5051005;28;20194;-88
2023/12/01 05:40:15;;;;;;;11.97;10.13;;;;;;;3.84;100.00;94133.75;5049203;28;20222;-87
2023/12/01 05:42:42;;;;;;;11.27;10.07;;;;;;;3.85;100.00;94132.00;5051049;28;20259;-89
2023/12/01 05:45:11;;;;;;;11.70;10.40;;;;;;;3.87;100.00;94130.84;5051017;28;20247;-87
2023/12/01 05:47:42;;;;;;;13.47;10.97;;;;;;;3.89;100.00;94123.84;5033092;28;20194;-88
2023/12/01 05:50:12;;;;;;;12.27;10.47;;;;;;;3.83;100.00;94114.34;5030735;28;20245;-88
2023/12/01 05:52:39;;;;;;;12.20;10.07;;;;;;;3.85;100.00;94114.19;5030685;28;20673;-88
2023/12/01 05:55:10;;;;;;;10.87;9.77;;;;;;;3.82;100.00;94120.41;5062687;28;20217;-88
2023/12/01 05:57:37;;;;;;;11.33;9.93;;;;;;;3.83;100.00;94126.28;5070799;28;20236;-88
2023/12/01 06:00:04;;;;;;;11.33;9.70;;;;;;;3.85;100.00;94114.94;5070255;28;20213;-88
2023/12/01 06:02:31;;;;;;;10.50;9.13;;;;;;;3.86;100.00;94119.09;5055913;28;20243;-88
2023/12/01 06:04:59;;;;;;;11.53;9.60;;;;;;;3.86;100.00;94120.84;5036352;28;20614;-87
2023/12/01 06:07:27;;;;;;;11.00;9.90;;;;;;;3.83;100.00;94116.13;5034576;28;20293;-88
2023/12/01 06:09:54;;;;;;;12.37;10.73;;;;;;;3.81;100.00;94113.72;5070494;28;20217;-87
2023/12/01 06:12:20;;;;;;;13.10;11.73;;;;;;;3.77;100.00;94115.81;5070389;28;20205;-88
2023/12/01 06:14:47;;;;;;;16.83;12.80;;;;;;;3.73;100.00;94112.03;5070074;28;20200;-88
2023/12/01 06:17:13;;;;;;;14.00;12.43;;;;;;;3.76;100.00;94108.38;5069964;28;20201;-88
2023/12/01 06:19:40;;;;;;;13.47;11.97;;;;;;;3.76;100.00;94110.91;5049714;28;20204;-87
2023/12/01 06:22:07;;;;;;;15.97;12.93;;;;;;;3.71;100.00;94105.53;5049847;28;20201;-88
2023/12/01 06:24:35;;;;;;;13.87;12.00;;;;;;;3.58;100.00;94116.28;5050240;28;20229;-87
2023/12/01 06:27:04;;;;;;;13.67;11.60;;;;;;;3.61;100.00;94136.31;5050761;28;20213;-88
2023/12/01 06:29:30;;;;;;;12.87;11.40;;;;;;;3.66;100.00;94130.69;5041381;28;20229;-87
2023/12/01 06:31:57;;;;;;;12.63;11.33;;;;;;;3.68;100.00;94126.22;5049483;28;20599;-87
2023/12/01 06:34:26;;;;;;;12.30;11.00;;;;;;;3.71;100.00;94116.50;5048548;28;20198;-88
2023/12/01 06:36:58;;;;;;;12.90;11.10;;;;;;;3.55;100.00;94136.19;5041446;28;20233;-88
2023/12/01 06:39:25;;;;;;;12.77;10.23;;;;;;;3.38;100.00;94149.00;5030164;28;20213;-87
2023/12/01 06:41:53;;;;;;;11.80;10.20;;;;;;;3.24;100.00;94174.38;5031050;28;20251;-88
2023/12/01 06:44:19;;;;;;;12.70;10.30;;;;;;;3.20;100.00;94206.97;5050091;28;20240;-87
2023/12/01 06:46:46;;;;;;;11.80;9.50;;;;;;;3.25;100.00;94217.44;5049851;28;20202;-87
2023/12/01 06:49:13;;;;;;;10.07;8.80;;;;;;;3.28;100.00;94193.41;5049670;28;20209;-87
2023/12/01 06:51:39;;;;;;;9.23;7.60;;;;;;;3.20;100.00;94181.53;5047409;28;20600;-88
2023/12/01 06:54:09;;;;;;;10.37;8.30;;;;;;;3.11;100.00;94185.06;5058041;28;20433;-87
2023/12/01 06:56:36;;;;;;;11.70;9.07;;;;;;;3.13;100.00;94244.94;5069723;28;20713;-87
2023/12/01 06:59:06;;;;;;;31.73;25.07;;;;;;;3.23;100.00;94259.25;5069510;28;20200;-87
2023/12/01 07:01:35;;;;;;;44.03;35.53;;;;;;;3.35;100.00;94240.91;5054724;28;20739;-87
2023/12/01 07:04:07;;;;;;;17.87;15.53;;;;;;;3.44;100.00;94224.66;5049635;28;20205;-87
2023/12/01 07:06:34;;;;;;;12.70;10.77;;;;;;;3.54;100.00;94208.38;5048284;28;20572;-87
2023/12/01 07:09:01;;;;;;;9.63;8.53;;;;;;;3.55;100.00;94187.06;5057789;28;20208;-87
2023/12/01 07:11:27;;;;;;;9.33;8.33;;;;;;;3.56;100.00;94181.03;5049681;28;20228;-86
2023/12/01 07:13:54;;;;;;;9.43;8.10;;;;;;;3.59;100.00;94183.25;5049774;28;20197;-88
2023/12/01 07:16:22;;;;;;;9.50;7.83;;;;;;;3.65;100.00;94187.66;5048466;28;20919;-88
2023/12/01 07:18:48;;;;;;;9.23;8.00;;;;;;;3.68;100.00;94177.13;5049154;28;20211;-87
2023/12/01 07:21:14;;;;;;;9.27;7.47;;;;;;;3.71;100.00;94169.94;5049113;28;20222;-87
2023/12/01 07:23:44;;;;;;;8.40;7.50;;;;;;;3.71;100.00;94179.34;5047534;28;20276;-86
2023/12/01 07:26:10;;;;;;;7.80;6.53;;;;;;;3.74;100.00;94189.19;5048577;28;20669;-86
2023/12/01 07:28:37;;;;;;;13.20;10.97;;;;;;;3.75;100.00;94183.13;5049313;28;20208;-87
2023/12/01 07:31:04;;;;;;;13.43;10.43;;;;;;;3.75;100.00;94183.13;5049043;28;20225;-87
2023/12/01 07:33:32;;;;;;;10.57;9.47;;;;;;;3.79;100.00;94179.28;5049269;28;20210;-87
2023/12/01 07:36:01;;;;;;;10.47;8.60;;;;;;;3.78;100.00;94157.34;5048870;28;20221;-87
2023/12/01 07:38:28;;;;;;;9.77;8.73;;;;;;;3.80;100.00;94160.50;5046740;28;20210;-88
2023/12/01 07:40:54;;;;;;;10.40;9.17;;;;;;;3.79;100.00;94164.03;5042805;28;20232;-88
2023/12/01 07:43:21;;;;;;;11.23;9.30;;;;;;;3.78;100.00;94157.34;5049027;28;20672;-87
2023/12/01 07:45:48;;;;;;;10.83;9.13;;;;;;;3.77;100.00;94153.22;5048707;28;20201;-88
2023/12/01 07:48:15;;;;;;;11.43;9.27;;;;;;;3.75;100.00;94162.78;5048878;28;20228;-88
2023/12/01 07:50:44;;;;;;;10.53;9.30;;;;;;;3.79;100.00;94176.75;5049185;28;20730;-88
2023/12/01 07:53:12;;;;;;;11.57;10.23;;;;;;;3.80;100.00;94184.22;5049524;28;20201;-88
2023/12/01 07:55:41;;;;;;;10.10;9.10;;;;;;;3.83;100.00;94175.44;5055196;28;20696;-87
2023/12/01 07:58:07;;;;;;;10.33;9.00;;;;;;;3.88;100.00;94167.28;5048446;28;20231;-87
2023/12/01 08:00:34;;;;;;;8.70;7.83;;;;;;;3.88;100.00;94162.97;5042240;28;20218;-87
2023/12/01 08:03:00;;;;;;;8.43;7.57;;;;;;;3.87;100.00;94163.16;5028896;28;20205;-87
2023/12/01 08:05:27;;;;;;;8.80;7.90;;;;;;;3.86;100.00;94164.13;5028311;28;20206;-88
2023/12/01 08:08:04;;;;;;;9.63;8.63;;;;;;;3.88;100.00;94174.91;5040687;28;20201;-87
2023/12/01 08:10:30;;;;;;;8.47;7.50;;;;;;;3.89;100.00;94179.06;5066784;28;20233;-86
2023/12/01 08:12:57;;;;;;;16.33;13.33;;;;;;;3.86;100.00;94172.53;5047510;28;20215;-88
2023/12/01 08:15:23;;;;;;;9.87;8.53;;;;;;;3.86;100.00;94190.38;5048742;28;20830;-88
2023/12/01 08:17:50;;;;;;;9.80;8.80;;;;;;;3.90;100.00;94188.28;5050246;28;20201;-88
2023/12/01 08:20:18;;;;;;;8.97;8.07;;;;;;;3.91;100.00;94185.56;5049700;28;20222;-88
2023/12/01 08:22:46;;;;;;;9.30;8.33;;;;;;;3.95;100.00;94191.09;5050634;28;20193;-87
2023/12/01 08:25:15;;;;;;;9.90;8.03;;;;;;;3.94;100.00;94197.94;5050193;28;20209;-86
2023/12/01 08:27:42;;;;;;;9.33;7.60;;;;;;;3.90;100.00;94198.47;5049545;28;20621;-87
2023/12/01 08:30:10;;;;;;;9.40;7.50;;;;;;;3.89;100.00;94205.31;5052831;28;20225;-86
2023/12/01 08:32:37;;;;;;;10.83;7.23;;;;;;;3.90;100.00;94201.78;5052856;28;20197;-87
2023/12/01 08:35:05;;;;;;;8.80;7.23;;;;;;;3.95;100.00;94191.09;5046376;28;20698;-88
2023/12/01 08:37:31;;;;;;;8.73;7.30;;;;;;;3.95;100.00;94186.81;5032631;28;20272;-88
2023/12/01 08:39:58;;;;;;;7.63;6.83;;;;;;;3.96;100.00;94190.16;5032833;28;20198;-87
2023/12/01 08:42:26;;;;;;;9.27;7.07;;;;;;;3.93;100.00;94195.56;5033064;28;20888;-88
2023/12/01 08:44:52;;;;;;;7.53;6.73;;;;;;;3.90;100.00;94208.63;5049113;28;20285;-87
2023/12/01 08:47:21;;;;;;;12.37;10.50;;;;;;;3.85;100.00;94214.22;5051902;28;20202;-86
2023/12/01 08:52:34;;;;;;;8.27;5.00;;;;;;;4.57;100.00;94436.38;5050835;28;20206;-85
2023/12/01 08:55:00;;;;;;;6.90;6.20;;;;;;;4.70;100.00;94402.69;5068631;28;20204;-87
2023/12/01 08:57:28;;;;;;;6.80;5.83;;;;;;;4.62;100.00;94268.41;5073543;28;20220;-87
2023/12/01 08:59:57;;;;;;;6.17;5.57;;;;;;;4.57;100.00;94208.75;5060766;28;20232;-87
2023/12/01 09:02:24;;;;;;;6.17;5.57;;;;;;;4.54;100.00;94178.50;5034022;28;20217;-87
2023/12/01 09:04:51;;;;;;;5.70;5.20;;;;;;;4.49;100.00;94163.75;5033715;28;20206;-89
2023/12/01 09:07:20;;;;;;;6.70;5.90;;;;;;;4.40;100.00;94157.16;5035834;28;20633;-87
2023/12/01 09:09:46;;;;;;;6.53;5.77;;;;;;;4.36;100.00;94161.00;5074118;28;20208;-87
2023/12/01 09:12:13;;;;;;;6.97;6.27;;;;;;;4.36;100.00;94173.75;5074149;28;20888;-87
2023/12/01 09:14:41;;;;;;;8.10;6.67;;;;;;;4.32;100.00;94170.75;5073550;28;20205;-86
2023/12/01 09:17:08;;;;;;;7.57;6.43;;;;;;;4.31;100.00;94173.47;5054229;28;20225;-86
2023/12/01 09:19:34;;;;;;;8.23;6.30;;;;;;;4.18;100.00;94168.97;5053688;28;20201;-88
2023/12/01 09:22:01;;;;;;;7.10;6.40;;;;;;;4.04;100.00;94190.09;5054121;28;20248;-87
2023/12/01 09:24:27;;;;;;;7.53;6.73;;;;;;;4.05;100.00;94215.38;5053330;28;20205;-87
2023/12/01 09:26:54;;;;;;;8.60;6.90;;;;;;;4.06;100.00;94227.13;5053808;28;20209;-88
2023/12/01 09:29:20;;;;;;;8.63;7.23;;;;;;;4.11;100.00;94214.69;5052512;28;20197;-87
2023/12/01 09:31:48;;;;;;;9.57;8.40;;;;;;;4.18;100.00;94211.47;5050127;28;20308;-87
2023/12/01 09:34:15;;;;;;;8.77;7.43;;;;;;;4.20;100.00;94207.81;5052880;28;20216;-87
2023/12/01 09:36:43;;;;;;;8.73;7.00;;;;;;;4.24;100.00;94193.72;5052630;28;20839;-87
2023/12/01 09:39:09;;;;;;;10.63;9.20;;;;;;;4.12;100.00;94192.56;5052764;28;20197;-88
2023/12/01 09:41:36;;;;;;;12.10;9.20;;;;;;;3.94;100.00;94210.69;5053156;28;20233;-87
2023/12/01 09:44:03;;;;;;;10.13;9.07;;;;;;;4.03;100.00;94208.88;5053253;28;20205;-87
2023/12/01 09:46:34;;;;;;;9.50;8.33;;;;;;;4.11;100.00;94203.72;5052505;28;20193;-87
2023/12/01 09:49:04;;;;;;;9.07;7.70;;;;;;;4.14;100.00;94191.44;5051123;28;20205;-86
2023/12/01 09:51:31;;;;;;;11.43;8.90;;;;;;;4.02;100.00;94184.38;5052531;28;20259;-87
2023/12/01 09:53:58;;;;;;;10.60;9.07;;;;;;;4.06;100.00;94185.59;5059081;28;20686;-87
2023/12/01 09:56:25;;;;;;;11.50;8.83;;;;;;;4.10;100.00;94185.09;5069659;28;20213;-86
2023/12/01 09:58:52;;;;;;;13.43;9.63;;;;;;;4.07;100.00;94170.16;5051410;28;20201;-88
2023/12/01 10:01:21;;;;;;;13.10;9.70;;;;;;;4.10;100.00;94172.38;5052440;28;20222;-87
2023/12/01 10:03:47;;;;;;;40.13;30.97;;;;;;;3.90;100.00;94166.16;5047688;28;20240;-87
2023/12/01 10:06:15;;;;;;;29.23;23.63;;;;;;;3.96;100.00;94185.84;5050732;28;20207;-87
2023/12/01 10:08:41;;;;;;;12.37;9.57;;;;;;;3.91;100.00;94170.28;5064205;28;20201;-86
2023/12/01 10:11:20;;;;;;;9.77;8.37;;;;;;;3.90;100.00;94178.88;5071551;28;20247;-86
2023/12/01 10:13:48;;;;;;;9.17;7.03;;;;;;;3.85;100.00;94183.69;5062740;28;20203;-86
2023/12/01 10:16:15;;;;;;;7.90;7.10;;;;;;;3.91;100.00;94184.75;5059340;28;20712;-88
2023/12/01 10:18:56;;;;;;;9.00;6.80;;;;;;;3.91;100.00;94197.50;5058003;28;20201;-88
2023/12/01 10:21:41;;;;;;;8.10;6.40;;;;;;;4.01;100.00;94192.97;5046973;28;20221;-87
2023/12/01 10:24:14;;;;;;;8.33;6.27;;;;;;;4.01;100.00;94170.84;5035915;28;20206;-88
2023/12/01 10:26:42;;;;;;;9.17;7.27;;;;;;;3.93;100.00;94173.47;5035821;28;20210;-88
2023/12/01 10:29:23;;;;;;;8.90;7.10;;;;;;;3.93;100.00;94193.03;5054907;28;20267;-89
2023/12/01 10:31:49;;;;;;;9.30;7.63;;;;;;;3.99;100.00;94198.25;5054762;28;20228;-86
2023/12/01 10:34:17;;;;;;;8.10;7.07;;;;;;;4.07;100.00;94202.47;5054531;28;20205;-87
2023/12/01 10:36:45;;;;;;;9.70;7.97;;;;;;;4.13;100.00;94179.66;5053183;28;20221;-87
2023/12/01 10:39:16;;;;;;;9.43;6.93;;;;;;;4.15;100.00;94164.22;5034939;28;20226;-88
2023/12/01 10:41:44;;;;;;;10.23;7.90;;;;;;;4.19;100.00;94167.22;5034636;28;20264;-88
2023/12/01 10:44:15;;;;;;;9.43;7.60;;;;;;;4.19;100.00;94169.75;5034027;28;20214;-89
2023/12/01 10:46:48;;;;;;;9.83;7.73;;;;;;;4.21;100.00;94167.84;5033997;28;20202;-88
2023/12/01 10:49:17;;;;;;;10.30;8.57;;;;;;;4.24;100.00;94158.06;5033345;28;20198;-86
2023/12/01 10:51:46;;;;;;;10.60;8.13;;;;;;;4.27;100.00;94164.56;5033478;28;20799;-87
2023/12/01 10:54:14;;;;;;;9.90;8.57;;;;;;;4.31;100.00;94165.81;5055324;28;20212;-88
2023/12/01 10:56:52;;;;;;;10.70;8.53;;;;;;;4.32;100.00;94149.56;5050234;28;20639;-88
2023/12/01 10:59:20;;;;;;;10.47;8.97;;;;;;;4.29;100.00;94132.88;5034775;28;20676;-87
2023/12/01 11:01:49;;;;;;;9.40;8.40;;;;;;;4.28;100.00;94131.28;5034594;28;20218;-88
2023/12/01 11:04:26;;;;;;;10.43;8.70;;;;;;;4.26;100.00;94117.16;5034972;28;20213;-87
2023/12/01 11:07:18;;;;;;;11.07;8.83;;;;;;;4.25;100.00;94105.38;5034920;28;20898;-86
2023/12/01 11:10:01;;;;;;;9.90;8.33;;;;;;;4.25;100.00;94111.25;5047946;28;20198;-88
2023/12/01 11:12:42;;;;;;;9.87;8.87;;;;;;;4.26;100.00;94101.88;5054375;28;20619;-88
2023/12/01 11:15:28;;;;;;;9.93;8.70;;;;;;;4.28;100.00;94117.78;5057530;28;20193;-88
2023/12/01 11:17:56;;;;;;;10.97;9.13;;;;;;;4.27;100.00;94114.44;5055307;28;20236;-89
2023/12/01 11:20:34;;;;;;;13.93;10.23;;;;;;;4.13;100.00;94202.59;5054805;28;20310;-87
2023/12/01 11:23:06;;;;;;;40.53;33.20;;;;;;;4.10;100.00;94159.63;5054827;28;20201;-88
2023/12/01 11:25:43;;;;;;;30.70;25.87;;;;;;;4.09;100.00;94136.88;5045731;28;20204;-88
2023/12/01 11:28:20;;;;;;;18.80;15.13;;;;;;;4.17;100.00;94131.72;5054089;28;20213;-89